createdAt,value
2019-03-28T00:00:37.063Z,0.00
2019-03-28T00:01:37.072Z,0.00
2019-03-28T00:02:37.168Z,0.00
2019-03-28T00:03:37.054Z,0.00
2019-03-28T00:04:37.026Z,0.00
2019-03-28T00:05:37.008Z,0.00
2019-03-28T00:06:36.995Z,0.00
2019-03-28T00:07:36.989Z,0.00
2019-03-28T00:08:36.994Z,0.00
2019-03-28T00:09:36.966Z,0.00
2019-03-28T00:10:36.955Z,0.00
2019-03-28T00:11:36.950Z,0.00
2019-03-28T00:12:36.939Z,0.00
2019-03-28T00:13:36.932Z,0.00
2019-03-28T00:14:36.929Z,0.00
2019-03-28T00:15:36.913Z,0.00
2019-03-28T00:16:36.900Z,0.00
2019-03-28T00:17:37.272Z,0.00
2019-03-28T00:18:36.871Z,0.00
2019-03-28T00:19:36.863Z,0.00
2019-03-28T00:20:36.870Z,0.00
2019-03-28T00:21:36.844Z,0.00
2019-03-28T00:22:36.830Z,0.00
2019-03-28T00:23:36.823Z,0.00
2019-03-28T00:24:36.823Z,0.00
2019-03-28T00:25:36.828Z,0.00
2019-03-28T00:26:36.810Z,0.00
2019-03-28T00:27:36.779Z,0.00
2019-03-28T00:28:37.051Z,0.00
2019-03-28T00:29:36.758Z,0.00
2019-03-28T00:30:36.746Z,0.00
2019-03-28T00:31:36.735Z,0.00
2019-03-28T00:32:36.745Z,0.00
2019-03-28T00:33:36.713Z,0.00
2019-03-28T00:34:36.713Z,0.00
2019-03-28T00:35:36.696Z,0.00
2019-03-28T00:36:36.686Z,0.00
2019-03-28T00:37:36.674Z,0.00
2019-03-28T00:38:36.684Z,0.00
2019-03-28T00:39:36.656Z,0.00
2019-03-28T00:40:36.651Z,0.00
2019-03-28T00:41:36.633Z,0.00
2019-03-28T00:42:36.640Z,0.00
2019-03-28T00:43:36.609Z,0.00
2019-03-28T00:44:36.622Z,0.00
2019-03-28T00:45:36.589Z,0.00
2019-03-28T00:46:36.579Z,0.00
2019-03-28T00:47:36.566Z,0.00
2019-03-28T00:48:36.556Z,0.00
2019-03-28T00:49:36.545Z,0.00
2019-03-28T00:50:36.552Z,0.00
2019-03-28T00:51:36.528Z,0.00
2019-03-28T00:52:36.534Z,0.00
2019-03-28T00:53:36.505Z,0.00
2019-03-28T00:54:36.495Z,0.00
2019-03-28T00:55:37.223Z,0.00
2019-03-28T00:56:46.468Z,0.00
2019-03-28T00:57:37.465Z,0.00
2019-03-28T00:58:36.464Z,0.00
2019-03-28T00:59:36.450Z,0.00
2019-03-28T01:00:36.429Z,0.00
2019-03-28T01:01:36.419Z,0.00
2019-03-28T01:02:36.424Z,0.00
2019-03-28T01:03:36.602Z,0.00
2019-03-28T01:04:36.386Z,0.00
2019-03-28T01:05:36.376Z,0.00
2019-03-28T01:06:36.367Z,0.00
2019-03-28T01:07:36.361Z,0.00
2019-03-28T01:08:36.356Z,0.00
2019-03-28T01:09:36.334Z,0.00
2019-03-28T01:10:36.328Z,0.00
2019-03-28T01:11:37.092Z,0.00
2019-03-28T01:12:36.315Z,0.00
2019-03-28T01:13:36.301Z,0.00
2019-03-28T01:14:36.292Z,0.00
2019-03-28T01:15:36.269Z,0.00
2019-03-28T01:16:36.256Z,0.00
2019-03-28T01:17:36.256Z,0.00
2019-03-28T01:18:36.255Z,0.00
2019-03-28T01:19:36.225Z,0.00
2019-03-28T01:20:36.234Z,0.00
2019-03-28T01:21:36.199Z,0.00
2019-03-28T01:22:36.196Z,0.00
2019-03-28T01:23:36.185Z,0.00
2019-03-28T01:24:36.244Z,0.00
2019-03-28T01:25:36.157Z,0.00
2019-03-28T01:26:36.165Z,0.00
2019-03-28T01:27:36.145Z,0.00
2019-03-28T01:28:36.127Z,0.00
2019-03-28T01:29:36.113Z,0.00
2019-03-28T01:30:36.105Z,0.00
2019-03-28T01:31:36.267Z,0.00
2019-03-28T01:32:36.103Z,0.00
2019-03-28T01:33:36.073Z,0.00
2019-03-28T01:34:36.063Z,0.00
2019-03-28T01:35:36.046Z,0.00
2019-03-28T01:36:36.042Z,0.00
2019-03-28T01:37:36.023Z,0.00
2019-03-28T01:38:36.037Z,0.00
2019-03-28T01:39:36.003Z,0.00
2019-03-28T01:40:36.013Z,0.00
2019-03-28T01:41:35.990Z,0.00
2019-03-28T01:42:35.970Z,0.00
2019-03-28T01:43:35.977Z,0.00
2019-03-28T01:44:35.970Z,0.00
2019-03-28T01:45:35.940Z,0.00
2019-03-28T01:46:35.929Z,0.00
2019-03-28T01:47:35.913Z,0.00
2019-03-28T01:48:35.901Z,0.00
2019-03-28T01:49:35.892Z,0.00
2019-03-28T01:50:35.898Z,0.00
2019-03-28T01:51:35.912Z,0.00
2019-03-28T01:52:35.859Z,0.00
2019-03-28T01:53:35.850Z,0.00
2019-03-28T01:54:35.839Z,0.00
2019-03-28T01:55:35.829Z,0.00
2019-03-28T01:56:36.323Z,0.00
2019-03-28T01:57:35.804Z,0.00
2019-03-28T01:58:35.801Z,0.00
2019-03-28T01:59:35.796Z,0.00
2019-03-28T02:00:35.787Z,0.00
2019-03-28T02:01:35.761Z,0.00
2019-03-28T02:02:35.787Z,0.00
2019-03-28T02:03:35.754Z,0.00
2019-03-28T02:04:35.761Z,0.00
2019-03-28T02:05:35.720Z,0.00
2019-03-28T02:06:35.706Z,0.00
2019-03-28T02:07:35.708Z,0.00
2019-03-28T02:08:35.706Z,0.00
2019-03-28T02:09:35.673Z,0.00
2019-03-28T02:10:35.664Z,0.00
2019-03-28T02:11:35.658Z,0.00
2019-03-28T02:12:35.639Z,0.00
2019-03-28T02:13:35.632Z,0.00
2019-03-28T02:14:35.650Z,0.00
2019-03-28T02:15:35.616Z,0.00
2019-03-28T02:16:35.620Z,0.00
2019-03-28T02:17:35.589Z,0.00
2019-03-28T02:18:35.598Z,0.00
2019-03-28T02:19:35.564Z,0.00
2019-03-28T02:20:36.178Z,0.00
2019-03-28T02:21:35.546Z,0.00
2019-03-28T02:22:35.540Z,0.00
2019-03-28T02:23:36.232Z,0.00
2019-03-28T02:24:35.514Z,0.00
2019-03-28T02:25:35.507Z,0.00
2019-03-28T02:26:35.509Z,0.00
2019-03-28T02:27:35.481Z,0.00
2019-03-28T02:28:35.473Z,0.00
2019-03-28T02:29:35.458Z,0.00
2019-03-28T02:30:35.455Z,0.00
2019-03-28T02:31:35.437Z,0.00
2019-03-28T02:32:35.469Z,0.00
2019-03-28T02:33:35.417Z,0.00
2019-03-28T02:34:35.403Z,0.00
2019-03-28T02:35:35.395Z,0.00
2019-03-28T02:36:35.392Z,0.00
2019-03-28T02:37:35.380Z,0.00
2019-03-28T02:38:35.374Z,0.00
2019-03-28T02:39:35.353Z,0.00
2019-03-28T02:40:35.345Z,0.00
2019-03-28T02:41:35.330Z,0.00
2019-03-28T02:42:35.325Z,0.00
2019-03-28T02:43:35.307Z,0.00
2019-03-28T02:44:35.319Z,0.00
2019-03-28T02:45:35.285Z,0.00
2019-03-28T02:46:35.281Z,0.00
2019-03-28T02:47:35.923Z,0.00
2019-03-28T02:48:35.252Z,0.00
2019-03-28T02:49:35.260Z,0.00
2019-03-28T02:50:35.255Z,0.00
2019-03-28T02:51:35.223Z,0.00
2019-03-28T02:52:35.233Z,0.00
2019-03-28T02:53:35.201Z,0.00
2019-03-28T02:54:35.198Z,0.00
2019-03-28T02:55:35.177Z,0.00
2019-03-28T02:56:35.192Z,0.00
2019-03-28T02:57:41.762Z,0.00
2019-03-28T02:58:36.906Z,0.00
2019-03-28T02:59:35.139Z,0.00
2019-03-28T03:00:35.130Z,0.00
2019-03-28T03:01:35.129Z,0.00
2019-03-28T03:02:35.132Z,0.00
2019-03-28T03:03:35.093Z,0.00
2019-03-28T03:04:35.085Z,0.00
2019-03-28T03:05:35.092Z,0.00
2019-03-28T03:06:35.065Z,0.00
2019-03-28T03:07:35.068Z,0.00
2019-03-28T03:08:35.059Z,0.00
2019-03-28T03:09:35.035Z,0.00
2019-03-28T03:10:35.026Z,0.00
2019-03-28T03:11:35.623Z,0.00
2019-03-28T03:12:35.000Z,0.00
2019-03-28T03:13:35.012Z,0.00
2019-03-28T03:14:34.997Z,0.00
2019-03-28T03:15:34.973Z,0.00
2019-03-28T03:16:35.022Z,0.00
2019-03-28T03:17:34.972Z,0.00
2019-03-28T03:18:34.937Z,0.00
2019-03-28T03:19:34.975Z,0.00
2019-03-28T03:20:34.931Z,0.00
2019-03-28T03:21:35.923Z,0.00
2019-03-28T03:22:34.901Z,0.00
2019-03-28T03:23:34.890Z,0.00
2019-03-28T03:24:34.882Z,0.00
2019-03-28T03:25:34.863Z,0.00
2019-03-28T03:26:34.887Z,0.00
2019-03-28T03:27:34.919Z,0.00
2019-03-28T03:28:34.840Z,0.00
2019-03-28T03:29:34.820Z,0.00
2019-03-28T03:30:34.863Z,0.00
2019-03-28T03:31:34.806Z,0.00
2019-03-28T03:32:34.827Z,0.00
2019-03-28T03:33:37.139Z,0.00
2019-03-28T03:34:34.779Z,0.00
2019-03-28T03:35:34.772Z,0.00
2019-03-28T03:36:34.763Z,0.00
2019-03-28T03:37:34.748Z,0.00
2019-03-28T03:38:34.749Z,0.00
2019-03-28T03:39:34.727Z,0.00
2019-03-28T03:40:34.716Z,0.00
2019-03-28T03:41:34.699Z,0.00
2019-03-28T03:42:34.697Z,0.00
2019-03-28T03:43:34.675Z,0.00
2019-03-28T03:44:34.691Z,0.00
2019-03-28T03:45:35.597Z,0.00
2019-03-28T03:46:34.647Z,0.00
2019-03-28T03:47:34.637Z,0.00
2019-03-28T03:48:34.626Z,0.00
2019-03-28T03:49:34.617Z,0.00
2019-03-28T03:50:34.626Z,0.00
2019-03-28T03:51:34.591Z,0.00
2019-03-28T03:52:34.584Z,0.00
2019-03-28T03:53:34.576Z,0.00
2019-03-28T03:54:34.583Z,0.00
2019-03-28T03:55:34.552Z,0.00
2019-03-28T03:56:34.561Z,0.00
2019-03-28T03:57:34.534Z,0.00
2019-03-28T03:58:34.526Z,0.00
2019-03-28T03:59:34.539Z,0.00
2019-03-28T04:00:34.517Z,0.00
2019-03-28T04:01:34.496Z,0.00
2019-03-28T04:02:34.505Z,0.00
2019-03-28T04:03:34.482Z,0.00
2019-03-28T04:04:34.464Z,0.00
2019-03-28T04:05:34.454Z,0.00
2019-03-28T04:06:34.443Z,0.00
2019-03-28T04:07:34.444Z,0.00
2019-03-28T04:08:34.441Z,0.00
2019-03-28T04:09:34.412Z,0.00
2019-03-28T04:10:34.411Z,0.00
2019-03-28T04:11:34.394Z,0.00
2019-03-28T04:12:34.378Z,0.00
2019-03-28T04:13:34.371Z,0.00
2019-03-28T04:14:34.422Z,0.00
2019-03-28T04:15:34.350Z,0.00
2019-03-28T04:16:34.343Z,0.00
2019-03-28T04:17:34.333Z,0.00
2019-03-28T04:18:34.325Z,0.00
2019-03-28T04:19:34.314Z,0.00
2019-03-28T04:20:34.316Z,0.00
2019-03-28T04:21:34.292Z,0.00
2019-03-28T04:22:34.304Z,0.00
2019-03-28T04:23:34.267Z,0.00
2019-03-28T04:24:34.259Z,0.00
2019-03-28T04:25:34.252Z,0.00
2019-03-28T04:26:34.261Z,0.00
2019-03-28T04:27:34.226Z,0.00
2019-03-28T04:28:34.234Z,0.00
2019-03-28T04:29:34.206Z,0.00
2019-03-28T04:30:34.202Z,0.00
2019-03-28T04:31:34.182Z,0.00
2019-03-28T04:32:34.221Z,0.00
2019-03-28T04:33:34.163Z,0.00
2019-03-28T04:34:34.154Z,0.00
2019-03-28T04:35:34.144Z,0.00
2019-03-28T04:36:34.137Z,0.00
2019-03-28T04:37:34.123Z,0.00
2019-03-28T04:38:34.142Z,0.00
2019-03-28T04:39:34.102Z,0.00
2019-03-28T04:40:34.560Z,0.00
2019-03-28T04:41:34.090Z,0.00
2019-03-28T04:42:34.070Z,0.00
2019-03-28T04:43:34.065Z,0.00
2019-03-28T04:44:34.068Z,0.00
2019-03-28T04:45:34.038Z,0.00
2019-03-28T04:46:34.042Z,0.00
2019-03-28T04:47:34.014Z,0.00
2019-03-28T04:48:34.016Z,0.00
2019-03-28T04:49:33.997Z,0.00
2019-03-28T04:50:34.001Z,0.00
2019-03-28T04:51:33.973Z,0.00
2019-03-28T04:52:33.964Z,0.00
2019-03-28T04:53:33.953Z,0.00
2019-03-28T04:54:33.949Z,0.00
2019-03-28T04:55:33.932Z,0.00
2019-03-28T04:56:33.937Z,0.00
2019-03-28T04:57:33.911Z,0.00
2019-03-28T04:58:43.795Z,0.00
2019-03-28T04:59:34.899Z,0.00
2019-03-28T05:00:33.881Z,0.00
2019-03-28T05:01:33.865Z,0.00
2019-03-28T05:02:33.877Z,0.00
2019-03-28T05:03:33.849Z,0.00
2019-03-28T05:04:33.840Z,0.00
2019-03-28T05:05:33.824Z,0.00
2019-03-28T05:06:33.837Z,0.00
2019-03-28T05:07:33.859Z,0.00
2019-03-28T05:08:33.813Z,0.00
2019-03-28T05:09:33.800Z,0.00
2019-03-28T05:10:33.778Z,0.00
2019-03-28T05:11:33.766Z,0.00
2019-03-28T05:12:33.752Z,5.62
2019-03-28T05:13:33.746Z,5.62
2019-03-28T05:14:33.750Z,5.62
2019-03-28T05:15:33.724Z,5.62
2019-03-28T05:16:33.713Z,5.62
2019-03-28T05:17:33.703Z,5.62
2019-03-28T05:18:33.691Z,5.62
2019-03-28T05:19:33.679Z,5.62
2019-03-28T05:20:33.694Z,5.62
2019-03-28T05:21:33.659Z,11.25
2019-03-28T05:22:33.656Z,11.25
2019-03-28T05:23:33.641Z,11.25
2019-03-28T05:24:33.624Z,11.25
2019-03-28T05:25:33.620Z,11.25
2019-03-28T05:26:33.627Z,16.88
2019-03-28T05:27:33.678Z,16.88
2019-03-28T05:28:33.591Z,16.88
2019-03-28T05:29:33.575Z,16.88
2019-03-28T05:30:33.566Z,16.88
2019-03-28T05:31:34.304Z,22.50
2019-03-28T05:32:33.562Z,22.50
2019-03-28T05:33:33.534Z,22.50
2019-03-28T05:34:34.364Z,22.50
2019-03-28T05:35:33.512Z,22.50
2019-03-28T05:36:33.499Z,22.50
2019-03-28T05:37:33.500Z,22.50
2019-03-28T05:38:33.500Z,28.12
2019-03-28T05:39:33.483Z,28.12
2019-03-28T05:40:33.465Z,28.12
2019-03-28T05:41:33.451Z,33.75
2019-03-28T05:42:33.444Z,33.75
2019-03-28T05:43:33.425Z,33.75
2019-03-28T05:44:33.449Z,33.75
2019-03-28T05:45:33.439Z,33.75
2019-03-28T05:46:33.396Z,39.38
2019-03-28T05:47:33.388Z,39.38
2019-03-28T05:48:33.375Z,39.38
2019-03-28T05:49:33.371Z,45.00
2019-03-28T05:50:33.377Z,45.00
2019-03-28T05:51:33.344Z,50.62
2019-03-28T05:52:33.334Z,50.62
2019-03-28T05:53:33.343Z,56.25
2019-03-28T05:54:33.316Z,56.25
2019-03-28T05:55:33.312Z,61.88
2019-03-28T05:56:33.310Z,61.88
2019-03-28T05:57:33.284Z,61.88
2019-03-28T05:58:33.281Z,61.88
2019-03-28T05:59:33.273Z,67.50
2019-03-28T06:00:33.257Z,67.50
2019-03-28T06:01:33.243Z,67.50
2019-03-28T06:02:33.251Z,67.50
2019-03-28T06:03:33.225Z,73.12
2019-03-28T06:04:33.216Z,73.12
2019-03-28T06:05:33.199Z,73.12
2019-03-28T06:06:33.190Z,73.12
2019-03-28T06:07:33.181Z,73.12
2019-03-28T06:08:33.191Z,67.50
2019-03-28T06:09:33.159Z,67.50
2019-03-28T06:10:33.152Z,67.50
2019-03-28T06:11:33.139Z,67.50
2019-03-28T06:12:33.156Z,61.88
2019-03-28T06:13:33.140Z,61.88
2019-03-28T06:14:33.155Z,61.88
2019-03-28T06:15:33.096Z,61.88
2019-03-28T06:16:33.089Z,61.88
2019-03-28T06:17:33.079Z,61.88
2019-03-28T06:18:33.068Z,61.88
2019-03-28T06:19:33.062Z,61.88
2019-03-28T06:20:33.072Z,61.88
2019-03-28T06:21:33.039Z,61.88
2019-03-28T06:22:33.038Z,61.88
2019-03-28T06:23:33.019Z,61.88
2019-03-28T06:24:33.009Z,61.88
2019-03-28T06:25:33.001Z,61.88
2019-03-28T06:26:33.006Z,67.50
2019-03-28T06:27:33.425Z,67.50
2019-03-28T06:28:32.964Z,73.12
2019-03-28T06:29:32.959Z,73.12
2019-03-28T06:30:32.946Z,78.75
2019-03-28T06:31:32.940Z,78.75
2019-03-28T06:32:42.842Z,78.75
2019-03-28T06:33:34.513Z,84.38
2019-03-28T06:34:32.910Z,90.00
2019-03-28T06:35:32.916Z,95.62
2019-03-28T06:36:32.886Z,95.62
2019-03-28T06:37:32.887Z,101.25
2019-03-28T06:38:32.877Z,106.88
2019-03-28T06:39:32.851Z,112.50
2019-03-28T06:40:32.840Z,123.75
2019-03-28T06:41:32.833Z,135.00
2019-03-28T06:42:32.822Z,140.62
2019-03-28T06:43:32.809Z,146.25
2019-03-28T06:44:32.981Z,151.88
2019-03-28T06:45:32.792Z,157.50
2019-03-28T06:46:32.782Z,163.12
2019-03-28T06:47:32.771Z,163.12
2019-03-28T06:48:32.780Z,163.12
2019-03-28T06:49:32.749Z,168.75
2019-03-28T06:50:32.777Z,168.75
2019-03-28T06:51:32.728Z,168.75
2019-03-28T06:52:32.747Z,168.75
2019-03-28T06:53:32.727Z,168.75
2019-03-28T06:54:32.704Z,174.38
2019-03-28T06:55:32.688Z,180.00
2019-03-28T06:56:32.723Z,185.62
2019-03-28T06:57:32.669Z,191.25
2019-03-28T06:58:32.655Z,191.25
2019-03-28T06:59:37.566Z,191.25
2019-03-28T07:00:33.635Z,191.25
2019-03-28T07:01:32.635Z,191.25
2019-03-28T07:02:32.647Z,196.88
2019-03-28T07:03:32.615Z,196.88
2019-03-28T07:04:32.595Z,208.12
2019-03-28T07:05:32.592Z,213.75
2019-03-28T07:06:32.600Z,225.00
2019-03-28T07:07:32.597Z,230.62
2019-03-28T07:08:32.568Z,241.88
2019-03-28T07:09:32.534Z,247.50
2019-03-28T07:10:32.536Z,253.12
2019-03-28T07:11:32.512Z,253.12
2019-03-28T07:12:32.521Z,264.38
2019-03-28T07:13:32.488Z,275.62
2019-03-28T07:14:32.582Z,292.50
2019-03-28T07:15:32.936Z,315.00
2019-03-28T07:16:32.456Z,326.25
2019-03-28T07:17:32.446Z,337.50
2019-03-28T07:18:32.433Z,343.12
2019-03-28T07:19:32.426Z,348.75
2019-03-28T07:20:32.425Z,365.62
2019-03-28T07:21:32.402Z,388.12
2019-03-28T07:22:32.398Z,399.38
2019-03-28T07:23:32.378Z,416.25
2019-03-28T07:24:32.365Z,421.88
2019-03-28T07:25:32.356Z,427.50
2019-03-28T07:26:32.361Z,421.88
2019-03-28T07:27:32.332Z,405.00
2019-03-28T07:28:32.345Z,388.12
2019-03-28T07:29:32.330Z,393.75
2019-03-28T07:30:32.301Z,416.25
2019-03-28T07:31:35.280Z,427.50
2019-03-28T07:32:32.293Z,438.75
2019-03-28T07:33:32.266Z,444.38
2019-03-28T07:34:32.254Z,438.75
2019-03-28T07:35:32.239Z,427.50
2019-03-28T07:36:32.256Z,427.50
2019-03-28T07:37:32.217Z,421.88
2019-03-28T07:38:32.221Z,405.00
2019-03-28T07:39:32.194Z,410.62
2019-03-28T07:40:33.588Z,438.75
2019-03-28T07:41:32.173Z,461.25
2019-03-28T07:42:32.160Z,483.75
2019-03-28T07:43:32.146Z,500.62
2019-03-28T07:44:32.157Z,495.00
2019-03-28T07:45:34.432Z,483.75
2019-03-28T07:46:32.110Z,461.25
2019-03-28T07:47:32.105Z,438.75
2019-03-28T07:48:32.095Z,416.25
2019-03-28T07:49:32.075Z,405.00
2019-03-28T07:50:33.587Z,410.62
2019-03-28T07:51:32.049Z,416.25
2019-03-28T07:52:32.040Z,427.50
2019-03-28T07:53:32.030Z,444.38
2019-03-28T07:54:32.027Z,450.00
2019-03-28T07:55:32.004Z,455.62
2019-03-28T07:56:32.011Z,450.00
2019-03-28T07:57:31.978Z,433.12
2019-03-28T07:58:31.965Z,416.25
2019-03-28T07:59:31.969Z,399.38
2019-03-28T08:00:31.941Z,376.88
2019-03-28T08:01:31.928Z,371.25
2019-03-28T08:02:31.933Z,365.62
2019-03-28T08:03:31.905Z,371.25
2019-03-28T08:04:31.894Z,376.88
2019-03-28T08:05:31.881Z,399.38
2019-03-28T08:06:31.873Z,427.50
2019-03-28T08:07:44.389Z,450.00
2019-03-28T08:08:38.670Z,478.12
2019-03-28T08:09:36.930Z,495.00
2019-03-28T08:10:31.822Z,500.62
2019-03-28T08:11:31.946Z,506.25
2019-03-28T08:12:31.798Z,511.88
2019-03-28T08:13:31.783Z,517.50
2019-03-28T08:14:31.798Z,551.25
2019-03-28T08:15:31.761Z,585.00
2019-03-28T08:16:31.752Z,624.38
2019-03-28T08:17:31.735Z,669.38
2019-03-28T08:18:31.724Z,686.25
2019-03-28T08:19:31.712Z,697.50
2019-03-28T08:20:31.739Z,703.12
2019-03-28T08:21:31.702Z,708.75
2019-03-28T08:22:31.674Z,708.75
2019-03-28T08:23:35.048Z,714.38
2019-03-28T08:24:31.653Z,714.38
2019-03-28T08:25:31.640Z,731.25
2019-03-28T08:26:31.678Z,770.62
2019-03-28T08:27:31.615Z,776.25
2019-03-28T08:28:31.608Z,781.88
2019-03-28T08:29:31.598Z,776.25
2019-03-28T08:30:31.584Z,776.25
2019-03-28T08:31:31.578Z,776.25
2019-03-28T08:32:31.577Z,781.88
2019-03-28T08:33:31.547Z,776.25
2019-03-28T08:34:31.537Z,781.88
2019-03-28T08:35:31.524Z,781.88
2019-03-28T08:36:31.515Z,770.62
2019-03-28T08:37:31.501Z,742.50
2019-03-28T08:38:31.511Z,725.62
2019-03-28T08:39:31.481Z,714.38
2019-03-28T08:40:31.468Z,714.38
2019-03-28T08:41:31.468Z,725.62
2019-03-28T08:42:31.446Z,736.88
2019-03-28T08:43:31.438Z,742.50
2019-03-28T08:44:31.442Z,748.12
2019-03-28T08:45:31.416Z,742.50
2019-03-28T08:46:31.410Z,731.25
2019-03-28T08:47:31.390Z,720.00
2019-03-28T08:48:31.431Z,725.62
2019-03-28T08:49:31.368Z,714.38
2019-03-28T08:50:31.371Z,703.12
2019-03-28T08:51:31.346Z,680.62
2019-03-28T08:52:31.337Z,658.12
2019-03-28T08:53:31.324Z,641.25
2019-03-28T08:54:31.311Z,635.62
2019-03-28T08:55:31.300Z,630.00
2019-03-28T08:56:31.352Z,630.00
2019-03-28T08:57:31.279Z,635.62
2019-03-28T08:58:31.269Z,635.62
2019-03-28T08:59:31.253Z,630.00
2019-03-28T09:00:35.190Z,613.12
2019-03-28T09:01:32.246Z,585.00
2019-03-28T09:02:31.219Z,562.50
2019-03-28T09:03:31.211Z,534.38
2019-03-28T09:04:31.197Z,495.00
2019-03-28T09:05:31.187Z,483.75
2019-03-28T09:06:31.175Z,506.25
2019-03-28T09:07:31.180Z,545.62
2019-03-28T09:08:31.153Z,579.38
2019-03-28T09:09:31.142Z,601.88
2019-03-28T09:10:31.127Z,613.12
2019-03-28T09:11:31.121Z,618.75
2019-03-28T09:12:31.110Z,624.38
2019-03-28T09:13:31.111Z,624.38
2019-03-28T09:14:32.051Z,646.88
2019-03-28T09:15:42.928Z,663.75
2019-03-28T09:16:32.067Z,663.75
2019-03-28T09:17:31.050Z,652.50
2019-03-28T09:18:31.036Z,635.62
2019-03-28T09:19:31.044Z,618.75
2019-03-28T09:20:31.016Z,607.50
2019-03-28T09:21:31.038Z,601.88
2019-03-28T09:22:30.993Z,607.50
2019-03-28T09:23:30.991Z,613.12
2019-03-28T09:24:30.970Z,618.75
2019-03-28T09:25:30.976Z,624.38
2019-03-28T09:26:30.951Z,630.00
2019-03-28T09:27:30.939Z,652.50
2019-03-28T09:28:30.929Z,675.00
2019-03-28T09:29:30.911Z,686.25
2019-03-28T09:30:30.912Z,691.88
2019-03-28T09:31:30.910Z,697.50
2019-03-28T09:32:30.881Z,691.88
2019-03-28T09:33:30.868Z,680.62
2019-03-28T09:34:30.857Z,646.88
2019-03-28T09:35:30.935Z,624.38
2019-03-28T09:36:30.838Z,613.12
2019-03-28T09:37:30.990Z,613.12
2019-03-28T09:38:30.814Z,613.12
2019-03-28T09:39:30.805Z,618.75
2019-03-28T09:40:30.811Z,624.38
2019-03-28T09:41:30.779Z,630.00
2019-03-28T09:42:30.772Z,624.38
2019-03-28T09:43:30.777Z,607.50
2019-03-28T09:44:30.944Z,590.62
2019-03-28T09:45:30.734Z,573.75
2019-03-28T09:46:30.720Z,568.12
2019-03-28T09:47:30.753Z,562.50
2019-03-28T09:48:30.708Z,556.88
2019-03-28T09:49:30.703Z,568.12
2019-03-28T09:50:30.676Z,556.88
2019-03-28T09:51:30.665Z,556.88
2019-03-28T09:52:30.653Z,556.88
2019-03-28T09:53:30.643Z,556.88
2019-03-28T09:54:30.640Z,551.25
2019-03-28T09:55:30.640Z,534.38
2019-03-28T09:56:30.607Z,517.50
2019-03-28T09:57:30.597Z,500.62
2019-03-28T09:58:30.586Z,489.38
2019-03-28T09:59:30.577Z,489.38
2019-03-28T10:00:32.815Z,500.62
2019-03-28T10:01:30.569Z,511.88
2019-03-28T10:02:30.540Z,523.12
2019-03-28T10:03:30.527Z,534.38
2019-03-28T10:04:30.516Z,534.38
2019-03-28T10:05:30.504Z,534.38
2019-03-28T10:06:30.497Z,534.38
2019-03-28T10:07:30.498Z,545.62
2019-03-28T10:08:30.487Z,562.50
2019-03-28T10:09:30.459Z,585.00
2019-03-28T10:10:30.449Z,613.12
2019-03-28T10:11:30.473Z,624.38
2019-03-28T10:12:30.433Z,630.00
2019-03-28T10:13:30.440Z,624.38
2019-03-28T10:14:30.404Z,618.75
2019-03-28T10:15:30.392Z,630.00
2019-03-28T10:16:30.379Z,652.50
2019-03-28T10:17:30.375Z,703.12
2019-03-28T10:18:30.381Z,742.50
2019-03-28T10:19:30.362Z,781.88
2019-03-28T10:20:30.338Z,810.00
2019-03-28T10:21:30.329Z,843.75
2019-03-28T10:22:30.330Z,866.25
2019-03-28T10:23:30.303Z,871.88
2019-03-28T10:24:30.290Z,883.12
2019-03-28T10:25:30.309Z,905.62
2019-03-28T10:26:30.266Z,933.75
2019-03-28T10:27:30.256Z,950.62
2019-03-28T10:28:30.247Z,956.25
2019-03-28T10:29:30.241Z,967.50
2019-03-28T10:30:30.227Z,961.88
2019-03-28T10:31:30.233Z,956.25
2019-03-28T10:32:30.205Z,956.25
2019-03-28T10:33:30.193Z,995.62
2019-03-28T10:34:30.180Z,1012.50
2019-03-28T10:35:30.170Z,1051.88
2019-03-28T10:36:30.158Z,1074.38
2019-03-28T10:37:30.174Z,1063.12
2019-03-28T10:38:30.140Z,1040.62
2019-03-28T10:39:30.147Z,1074.38
2019-03-28T10:40:30.115Z,1158.75
2019-03-28T10:41:30.106Z,1243.12
2019-03-28T10:42:30.092Z,1203.75
2019-03-28T10:43:30.099Z,1108.12
2019-03-28T10:44:30.092Z,1051.88
2019-03-28T10:45:33.366Z,1029.38
2019-03-28T10:46:30.045Z,1006.88
2019-03-28T10:47:30.034Z,990.00
2019-03-28T10:48:30.023Z,995.62
2019-03-28T10:49:30.030Z,990.00
2019-03-28T10:50:40.858Z,961.88
2019-03-28T10:51:30.987Z,922.50
2019-03-28T10:52:29.978Z,905.62
2019-03-28T10:53:30.355Z,922.50
2019-03-28T10:54:29.955Z,973.12
2019-03-28T10:55:29.957Z,1001.25
2019-03-28T10:56:29.945Z,1068.75
2019-03-28T10:57:31.323Z,1130.62
2019-03-28T10:58:29.906Z,1181.25
2019-03-28T10:59:29.898Z,1226.25
2019-03-28T11:00:29.884Z,1237.50
2019-03-28T11:01:46.935Z,1231.88
2019-03-28T11:02:30.860Z,1226.25
2019-03-28T11:03:30.329Z,1237.50
2019-03-28T11:04:29.854Z,1265.62
2019-03-28T11:05:29.830Z,1282.50
2019-03-28T11:06:29.820Z,1254.38
2019-03-28T11:07:29.829Z,1237.50
2019-03-28T11:08:29.801Z,1220.62
2019-03-28T11:09:29.796Z,1237.50
2019-03-28T11:10:30.668Z,1321.88
2019-03-28T11:11:29.762Z,1327.50
2019-03-28T11:12:29.751Z,1355.62
2019-03-28T11:13:29.765Z,1372.50
2019-03-28T11:14:29.731Z,1333.12
2019-03-28T11:15:29.720Z,1209.38
2019-03-28T11:16:29.726Z,1136.25
2019-03-28T11:17:29.695Z,1125.00
2019-03-28T11:18:29.698Z,1119.38
2019-03-28T11:19:29.702Z,1108.12
2019-03-28T11:20:29.666Z,1091.25
2019-03-28T11:21:29.654Z,1063.12
2019-03-28T11:22:29.645Z,1029.38
2019-03-28T11:23:29.630Z,1023.75
2019-03-28T11:24:29.619Z,1029.38
2019-03-28T11:25:29.626Z,1063.12
2019-03-28T11:26:29.595Z,1080.00
2019-03-28T11:27:29.584Z,1051.88
2019-03-28T11:28:29.575Z,995.62
2019-03-28T11:29:29.567Z,945.00
2019-03-28T11:30:29.559Z,916.88
2019-03-28T11:31:29.573Z,905.62
2019-03-28T11:32:29.530Z,894.38
2019-03-28T11:33:29.519Z,877.50
2019-03-28T11:34:29.505Z,855.00
2019-03-28T11:35:29.495Z,815.62
2019-03-28T11:36:29.496Z,787.50
2019-03-28T11:37:29.490Z,793.12
2019-03-28T11:38:29.462Z,826.88
2019-03-28T11:39:29.451Z,855.00
2019-03-28T11:40:29.443Z,877.50
2019-03-28T11:41:29.429Z,877.50
2019-03-28T11:42:29.420Z,883.12
2019-03-28T11:43:29.421Z,888.75
2019-03-28T11:44:29.398Z,894.38
2019-03-28T11:45:29.387Z,905.62
2019-03-28T11:46:29.388Z,900.00
2019-03-28T11:47:29.362Z,888.75
2019-03-28T11:48:29.387Z,860.62
2019-03-28T11:49:29.365Z,838.12
2019-03-28T11:50:29.330Z,821.25
2019-03-28T11:51:30.422Z,821.25
2019-03-28T11:52:29.310Z,843.75
2019-03-28T11:53:29.304Z,888.75
2019-03-28T11:54:29.292Z,928.12
2019-03-28T11:55:29.298Z,956.25
2019-03-28T11:56:29.264Z,956.25
2019-03-28T11:57:29.262Z,945.00
2019-03-28T11:58:29.245Z,933.75
2019-03-28T11:59:29.229Z,939.38
2019-03-28T12:00:29.631Z,956.25
2019-03-28T12:01:29.249Z,973.12
2019-03-28T12:02:29.195Z,973.12
2019-03-28T12:03:29.184Z,956.25
2019-03-28T12:04:29.173Z,939.38
2019-03-28T12:05:29.167Z,939.38
2019-03-28T12:06:29.153Z,945.00
2019-03-28T12:07:29.157Z,956.25
2019-03-28T12:08:29.129Z,961.88
2019-03-28T12:09:29.121Z,967.50
2019-03-28T12:10:29.107Z,967.50
2019-03-28T12:11:29.101Z,967.50
2019-03-28T12:12:29.084Z,961.88
2019-03-28T12:13:29.094Z,956.25
2019-03-28T12:14:29.063Z,939.38
2019-03-28T12:15:29.052Z,933.75
2019-03-28T12:16:29.066Z,922.50
2019-03-28T12:17:29.031Z,916.88
2019-03-28T12:18:29.020Z,905.62
2019-03-28T12:19:29.085Z,905.62
2019-03-28T12:20:28.996Z,911.25
2019-03-28T12:21:28.989Z,911.25
2019-03-28T12:22:28.973Z,905.62
2019-03-28T12:23:28.973Z,877.50
2019-03-28T12:24:28.978Z,855.00
2019-03-28T12:25:28.992Z,849.38
2019-03-28T12:26:28.931Z,877.50
2019-03-28T12:27:28.924Z,894.38
2019-03-28T12:28:28.911Z,894.38
2019-03-28T12:29:28.898Z,866.25
2019-03-28T12:30:28.888Z,838.12
2019-03-28T12:31:28.916Z,826.88
2019-03-28T12:32:28.868Z,826.88
2019-03-28T12:33:28.861Z,832.50
2019-03-28T12:34:28.842Z,826.88
2019-03-28T12:35:28.840Z,821.25
2019-03-28T12:36:28.824Z,815.62
2019-03-28T12:37:28.827Z,832.50
2019-03-28T12:38:28.952Z,832.50
2019-03-28T12:39:28.795Z,838.12
2019-03-28T12:40:28.778Z,821.25
2019-03-28T12:41:28.782Z,793.12
2019-03-28T12:42:28.760Z,781.88
2019-03-28T12:43:28.759Z,787.50
2019-03-28T12:44:28.732Z,804.38
2019-03-28T12:45:28.721Z,815.62
2019-03-28T12:46:28.709Z,810.00
2019-03-28T12:47:41.602Z,804.38
2019-03-28T12:48:29.709Z,787.50
2019-03-28T12:49:28.676Z,787.50